Time;durP1;ratioP1;P1;durP2;ratioP2;P2;SDS_P1;SDS_P2;PMS_P1;PMS_P2;Temp;Humidity;BMP_temperature;BMP_pressure;BME280_temperature;BME280_humidity;BME280_pressure;Samples;Min_cycle;Max_cycle;Signal;HPM_P1;HPM_P2
2022/02/10 00:06:59;;;;;;;6.45;4.85;;;;;;;11.74;60.89;99873.66;1721103;80;21557;-75
2022/02/10 00:17:36;;;;;;;6.00;4.58;;;;;;;11.71;60.87;99869.52;1782972;79;22093;-75
2022/02/10 00:20:14;;;;;;;5.40;4.60;;;;;;;11.70;60.87;99869.69;1769189;79;21044;-74
2022/02/10 00:36:11;;;;;;;6.55;4.83;;;;;;;11.64;60.87;99850.42;1771478;79;21009;-72
2022/02/10 00:38:42;;;;;;;6.42;4.87;;;;;;;11.64;60.87;99839.78;1792224;79;21034;-73
2022/02/10 00:41:05;;;;;;;5.87;4.87;;;;;;;11.62;60.84;99830.63;1724976;82;21112;-73
2022/02/10 00:43:31;;;;;;;6.75;4.50;;;;;;;11.63;60.83;99831.45;1742987;80;21136;-73
2022/02/10 00:45:57;;;;;;;7.40;4.90;;;;;;;11.61;60.84;99832.47;1707751;83;21046;-74
2022/02/10 00:48:24;;;;;;;7.60;4.78;;;;;;;11.63;60.84;99828.80;1699702;83;21573;-74
2022/02/10 00:50:51;;;;;;;5.55;4.45;;;;;;;11.54;60.81;99815.53;1748512;80;20994;-73
2022/02/10 00:53:23;;;;;;;7.12;5.10;;;;;;;11.62;60.81;99818.66;1750079;80;21534;-74
2022/02/10 00:55:47;;;;;;;6.00;4.80;;;;;;;11.63;60.81;99815.48;1748093;81;21285;-75
2022/02/10 00:58:28;;;;;;;6.03;4.55;;;;;;;11.61;60.77;99816.51;1751274;82;21073;-73
2022/02/10 01:13:51;;;;;;;5.35;4.62;;;;;;;11.59;60.76;99799.89;1746324;80;21046;-73
2022/02/10 01:24:34;;;;;;;6.67;5.00;;;;;;;11.57;60.78;99794.39;1685080;80;21076;-73
2022/02/10 01:29:45;;;;;;;5.62;5.10;;;;;;;11.56;60.78;99806.88;1754916;80;21557;-74
2022/02/10 01:32:11;;;;;;;5.85;4.40;;;;;;;11.55;60.80;99799.05;1746330;80;21006;-74
2022/02/10 01:34:56;;;;;;;5.00;4.50;;;;;;;11.54;60.80;99796.91;1740069;80;21244;-73
2022/02/10 01:37:10;;;;;;;6.05;4.80;;;;;;;11.55;60.80;99796.39;1745970;80;20946;-73
2022/02/10 01:39:43;;;;;;;6.53;5.05;;;;;;;11.52;60.82;99797.58;1745997;80;21049;-72
2022/02/10 02:04:04;;;;;;;5.50;4.47;;;;;;;11.49;60.83;99780.66;1745853;80;21089;-73
2022/02/10 02:06:40;;;;;;;5.58;4.90;;;;;;;11.48;60.84;99777.66;1731900;80;21062;-75
2022/02/10 02:09:01;;;;;;;6.75;4.95;;;;;;;11.49;60.88;99787.78;1759281;80;21070;-72
2022/02/10 02:11:27;;;;;;;5.25;4.72;;;;;;;11.48;60.87;99779.48;1735532;81;21010;-73
2022/02/10 02:13:54;;;;;;;5.67;4.60;;;;;;;11.47;60.86;99781.30;1741843;82;21121;-73
2022/02/10 02:16:20;;;;;;;6.65;4.78;;;;;;;11.48;60.86;99774.98;1746427;80;21502;-73
2022/02/10 02:18:47;;;;;;;5.30;4.75;;;;;;;11.48;60.87;99773.66;1745899;80;21503;-73
2022/02/10 02:21:17;;;;;;;6.00;4.72;;;;;;;11.49;60.86;99779.33;1752948;81;21100;-74
2022/02/10 02:23:43;;;;;;;5.83;4.42;;;;;;;11.50;60.86;99782.80;1742614;81;21069;-76
2022/02/10 02:26:14;;;;;;;5.42;4.92;;;;;;;11.50;60.84;99785.47;1745736;81;21105;-74
2022/02/10 02:28:42;;;;;;;6.37;4.92;;;;;;;11.50;60.81;99789.45;1744461;81;21113;-74
2022/02/10 02:31:13;;;;;;;5.37;4.60;;;;;;;11.49;60.81;99787.30;1741801;81;21007;-73
2022/02/10 02:39:12;;;;;;;5.40;4.60;;;;;;;11.49;60.80;99792.63;1752869;81;21140;-73
2022/02/10 03:06:15;;;;;;;4.85;4.35;;;;;;;11.45;60.92;99791.80;1752329;81;21545;-75
2022/02/10 03:08:38;;;;;;;5.00;4.50;;;;;;;11.44;60.95;99791.48;1741302;81;21145;-74
2022/02/10 03:11:04;;;;;;;7.45;5.00;;;;;;;11.44;60.95;99787.49;1739865;82;21053;-75
2022/02/10 03:13:32;;;;;;;5.35;4.47;;;;;;;11.44;60.96;99787.49;1741542;80;20987;-75
2022/02/10 04:05:13;;;;;;;4.78;4.37;;;;;;;11.43;61.09;99777.33;1751212;80;21101;-74
2022/02/10 04:15:48;;;;;;;5.53;4.75;;;;;;;11.45;61.12;99776.66;1754938;80;21004;-73
2022/02/10 04:18:49;;;;;;;5.12;4.30;;;;;;;11.45;61.12;99777.98;1743220;80;21026;-76
2022/02/10 04:26:04;;;;;;;4.83;4.33;;;;;;;11.45;61.11;99773.99;1751148;81;22096;-75
2022/02/10 04:31:27;;;;;;;4.85;4.35;;;;;;;11.46;61.11;99784.98;1757892;80;21055;-75
2022/02/10 05:23:57;;;;;;;4.63;4.20;;;;;;;11.50;61.08;99807.57;1760741;80;21016;-74
2022/02/10 05:32:07;;;;;;;5.10;4.70;;;;;;;11.52;61.07;99822.03;1752545;82;21104;-73
2022/02/10 05:34:16;;;;;;;4.97;4.47;;;;;;;11.51;61.08;99823.88;1749374;80;21020;-74
2022/02/10 05:36:44;;;;;;;5.90;4.80;;;;;;;11.53;61.07;99829.00;1748951;82;21012;-74
2022/02/10 05:39:19;;;;;;;5.28;4.78;;;;;;;11.52;61.07;99828.17;1744662;81;21056;-74
2022/02/10 05:41:59;;;;;;;5.45;4.92;;;;;;;11.52;61.07;99818.05;1738506;82;21521;-73
2022/02/10 05:44:33;;;;;;;5.05;4.58;;;;;;;11.54;61.06;99830.16;1752543;80;21098;-74
2022/02/10 06:00:10;;;;;;;5.55;5.05;;;;;;;11.55;61.04;99833.64;1750738;82;21094;-74
2022/02/10 06:53:45;;;;;;;5.42;4.83;;;;;;;11.59;61.01;99864.25;1755103;80;21014;-74
2022/02/10 07:04:38;;;;;;;6.17;5.58;;;;;;;11.59;61.01;99863.75;1748156;80;21142;-74
2022/02/10 07:07:09;;;;;;;5.15;4.65;;;;;;;11.61;60.99;99863.58;1752458;80;21608;-74
2022/02/10 07:09:57;;;;;;;5.60;5.05;;;;;;;11.61;61.01;99874.22;1748875;81;21002;-75
2022/02/10 07:12:42;;;;;;;5.28;4.78;;;;;;;11.62;60.98;99869.22;1745106;81;21005;-74
2022/02/10 08:00:36;;;;;;;4.92;4.45;;;;;;;11.78;61.56;99882.95;1745570;80;21002;-73
2022/02/10 08:57:14;;;;;;;4.83;4.37;;;;;;;12.10;60.91;99931.79;1752783;81;21033;-71
2022/02/10 09:56:49;;;;;;;4.97;4.47;;;;;;;12.30;60.46;99925.52;1751853;80;21028;-76
2022/02/10 10:01:35;;;;;;;4.17;3.77;;;;;;;12.32;60.41;99923.03;1711809;82;21104;-70
2022/02/10 10:04:08;;;;;;;4.80;4.40;;;;;;;12.34;60.39;99919.69;1735189;82;21003;-69
2022/02/10 10:06:57;;;;;;;5.20;4.70;;;;;;;12.34;60.35;99920.17;1738839;82;21585;-70
2022/02/10 10:09:32;;;;;;;4.45;4.05;;;;;;;12.35;60.35;99921.33;1737293;80;21427;-70
2022/02/10 10:15:00;;;;;;;4.55;4.15;;;;;;;12.36;60.31;99915.02;1741845;82;21046;-72
2022/02/10 10:17:57;;;;;;;4.42;4.03;;;;;;;12.36;60.29;99915.02;1725549;81;21627;-72
2022/02/10 10:20:21;;;;;;;4.47;4.08;;;;;;;12.37;60.28;99913.17;1742073;80;21065;-75
2022/02/10 10:50:44;;;;;;;7.85;6.35;;;;;;;13.01;69.72;99892.05;1742130;80;21087;-69
2022/02/10 10:53:13;;;;;;;8.43;5.90;;;;;;;13.02;69.21;99897.70;1739608;80;21964;-70
2022/02/10 10:55:42;;;;;;;9.20;6.12;;;;;;;13.02;69.00;99901.70;1728882;82;21628;-70
2022/02/10 10:58:01;;;;;;;6.50;5.78;;;;;;;13.00;68.83;99897.90;1733298;81;21093;-70
2022/02/10 11:36:55;;;;;;;6.05;5.45;;;;;;;12.69;65.89;99888.63;1740969;80;21065;-69
2022/02/10 11:39:32;;;;;;;6.47;5.87;;;;;;;12.67;65.73;99892.83;1678554;85;21078;-68
2022/02/10 11:42:11;;;;;;;6.20;5.60;;;;;;;12.65;65.58;99895.33;1678072;84;21091;-69
2022/02/10 12:00:11;;;;;;;5.83;5.08;;;;;;;12.52;64.79;99902.59;1736006;81;21076;-70
2022/02/10 12:36:54;;;;;;;5.70;5.10;;;;;;;12.35;63.76;99908.02;1778274;80;21526;-75
2022/02/10 12:42:44;;;;;;;6.03;5.42;;;;;;;12.35;63.66;99877.89;1772937;79;21171;-72
2022/02/10 13:23:44;;;;;;;6.78;5.35;;;;;;;12.53;65.55;99918.38;1774274;79;21073;-73
2022/02/10 13:27:04;;;;;;;6.97;5.03;;;;;;;12.55;65.42;99922.21;1778088;79;21025;-70
2022/02/10 14:18:23;;;;;;;4.55;4.05;;;;;;;12.44;63.62;99925.27;1784154;79;21079;-68
2022/02/10 14:25:42;;;;;;;4.95;4.45;;;;;;;12.46;63.46;99928.59;1800498;78;21145;-69
2022/02/10 14:28:08;;;;;;;4.47;3.42;;;;;;;12.46;63.38;99926.78;1771210;80;21073;-68
2022/02/10 14:30:34;;;;;;;4.70;3.85;;;;;;;12.47;63.34;99920.94;1813307;78;21100;-68
2022/02/10 14:33:00;;;;;;;4.15;3.75;;;;;;;12.47;63.27;99924.42;1779694;80;21576;-68
2022/02/10 14:35:37;;;;;;;5.08;4.35;;;;;;;12.47;63.19;99927.09;1769179;79;21049;-71
2022/02/10 15:10:46;;;;;;;6.05;3.77;;;;;;;12.48;63.04;99931.94;1791409;79;21048;-69
2022/02/10 15:33:16;;;;;;;4.30;3.77;;;;;;;12.30;62.49;99943.66;1782223;80;21146;-69
2022/02/10 15:54:23;;;;;;;4.28;3.60;;;;;;;12.24;62.60;99939.55;1772251;80;21249;-68
2022/02/10 15:57:00;;;;;;;3.72;3.33;;;;;;;12.24;62.57;99939.03;1764098;79;21521;-69
2022/02/10 16:10:52;;;;;;;5.25;3.80;;;;;;;12.22;62.51;99943.70;1769752;79;21081;-68
2022/02/10 16:17:55;;;;;;;5.12;4.47;;;;;;;12.18;62.31;99939.73;1762778;79;21544;-69
2022/02/10 16:20:23;;;;;;;5.20;4.30;;;;;;;12.17;62.29;99944.23;1769411;79;21021;-70
2022/02/10 16:23:01;;;;;;;4.67;4.17;;;;;;;12.16;62.26;99943.89;1775369;80;21031;-69
2022/02/10 16:25:28;;;;;;;5.50;4.47;;;;;;;12.17;62.23;99943.42;1775893;80;21136;-69
2022/02/10 16:28:08;;;;;;;6.28;4.47;;;;;;;12.16;62.22;99951.06;1788963;80;21995;-69
2022/02/10 16:30:24;;;;;;;4.67;4.20;;;;;;;12.16;62.18;99949.73;1789701;80;21064;-70
2022/02/10 16:32:50;;;;;;;5.17;4.67;;;;;;;12.15;62.14;99950.75;1786936;80;21208;-70
2022/02/10 16:35:17;;;;;;;5.75;4.80;;;;;;;12.15;62.10;99954.75;1775182;80;21601;-69
2022/02/10 16:37:46;;;;;;;5.65;4.55;;;;;;;12.15;62.09;99955.56;1772954;80;21077;-69
2022/02/10 16:40:12;;;;;;;5.75;5.17;;;;;;;12.13;62.06;99949.59;1818706;78;21628;-68
2022/02/10 16:42:38;;;;;;;5.03;4.47;;;;;;;12.14;62.04;99953.07;1807516;78;21549;-69
2022/02/10 16:45:05;;;;;;;5.75;5.15;;;;;;;12.13;62.00;99945.59;1783105;80;21990;-68
2022/02/10 16:47:32;;;;;;;5.22;4.67;;;;;;;12.13;61.99;99953.58;1810568;78;21016;-69
2022/02/10 16:50:00;;;;;;;5.20;4.47;;;;;;;12.12;61.94;99952.42;1793056;78;21083;-69
2022/02/10 16:52:34;;;;;;;4.83;4.33;;;;;;;12.13;61.95;99954.06;1784755;80;21087;-68
2022/02/10 16:55:08;;;;;;;6.10;5.22;;;;;;;12.13;61.91;99959.39;1776858;80;21088;-69
2022/02/10 16:58:08;;;;;;;5.50;4.62;;;;;;;12.11;61.88;99955.59;1807290;78;21033;-69
2022/02/10 17:19:01;;;;;;;7.17;6.15;;;;;;;12.05;61.79;99955.44;1774117;80;21078;-69
2022/02/10 17:26:53;;;;;;;6.35;5.75;;;;;;;12.02;61.78;99957.13;1767846;80;21073;-69
2022/02/10 17:29:11;;;;;;;6.58;5.90;;;;;;;11.99;61.76;99953.81;1745099;80;21596;-69
2022/02/10 17:32:26;;;;;;;7.10;6.40;;;;;;;12.00;61.76;99955.96;1768104;80;21115;-68
2022/02/10 17:37:02;;;;;;;7.62;6.83;;;;;;;11.98;61.75;99959.30;1772827;80;21041;-68
2022/02/10 17:42:23;;;;;;;7.03;6.33;;;;;;;11.96;61.70;99956.80;1774012;80;21111;-68
2022/02/10 17:52:22;;;;;;;6.97;6.22;;;;;;;11.94;61.63;99953.99;1790288;80;21032;-70
2022/02/10 17:54:49;;;;;;;7.50;6.50;;;;;;;11.92;61.62;99956.82;1778083;80;21115;-70
2022/02/10 17:57:16;;;;;;;8.55;7.37;;;;;;;11.92;61.60;99952.00;1749689;81;21106;-70
2022/02/10 17:59:43;;;;;;;6.65;6.03;;;;;;;11.91;61.59;99951.66;1776581;80;21038;-68
2022/02/10 18:02:09;;;;;;;8.30;6.92;;;;;;;11.90;61.58;99945.52;1753545;80;21053;-68
2022/02/10 18:04:36;;;;;;;7.17;6.45;;;;;;;11.90;61.57;99950.84;1804915;78;21013;-68
2022/02/10 18:07:04;;;;;;;8.90;6.58;;;;;;;11.89;61.54;99945.17;1784344;80;21592;-70
2022/02/10 18:14:28;;;;;;;7.78;6.97;;;;;;;11.88;61.50;99947.48;1791469;78;21062;-69
2022/02/10 18:17:05;;;;;;;8.33;7.03;;;;;;;11.89;61.49;99954.48;1820874;78;21037;-69
2022/02/10 18:19:29;;;;;;;9.38;7.35;;;;;;;11.88;61.48;99949.30;1787178;80;21811;-69
2022/02/10 18:22:23;;;;;;;7.55;6.75;;;;;;;11.87;61.47;99951.14;1779466;78;21077;-68
2022/02/10 18:27:18;;;;;;;7.58;6.85;;;;;;;11.87;61.46;99950.31;1802148;78;21072;-68
2022/02/10 18:29:48;;;;;;;8.00;7.20;;;;;;;11.86;61.44;99946.83;1801153;78;21537;-68
2022/02/10 19:03:01;;;;;;;8.25;7.45;;;;;;;11.75;61.44;99940.03;1808738;78;20978;-65
2022/02/10 19:10:19;;;;;;;9.03;8.13;;;;;;;11.71;61.46;99924.59;1781207;80;21021;-63
2022/02/10 19:12:48;;;;;;;9.23;8.25;;;;;;;11.71;61.46;99927.25;1766551;80;21123;-64
2022/02/10 19:15:20;;;;;;;8.83;7.97;;;;;;;11.70;61.46;99918.41;1758887;80;21100;-65
2022/02/10 19:17:45;;;;;;;8.63;7.72;;;;;;;11.70;61.45;99923.73;1756409;81;21092;-63
2022/02/10 19:20:13;;;;;;;9.33;7.85;;;;;;;11.69;61.44;99921.27;1787711;80;21072;-64
2022/02/10 19:22:43;;;;;;;9.63;8.60;;;;;;;11.70;61.43;99921.58;1779085;80;21517;-64
2022/02/10 19:25:12;;;;;;;9.03;8.13;;;;;;;11.69;61.43;99927.41;1779456;80;21111;-63
2022/02/10 19:27:41;;;;;;;9.25;8.35;;;;;;;11.69;61.40;99919.94;1765986;80;21049;-66
2022/02/10 19:30:11;;;;;;;10.25;8.88;;;;;;;11.70;61.39;99921.58;1746527;81;21114;-61
2022/02/10 19:32:41;;;;;;;9.23;8.30;;;;;;;11.69;61.37;99921.27;1775902;80;21013;-64
2022/02/10 19:35:09;;;;;;;9.45;8.45;;;;;;;11.69;61.37;99926.59;1748813;81;21045;-63
2022/02/10 19:37:35;;;;;;;8.73;7.62;;;;;;;11.69;61.33;99925.26;1760381;81;21112;-64
2022/02/10 19:40:03;;;;;;;9.20;8.03;;;;;;;11.67;61.35;99912.13;1746578;81;20990;-61
2022/02/10 19:42:34;;;;;;;8.85;7.92;;;;;;;11.68;61.31;99920.92;1758895;81;21565;-64
2022/02/10 19:45:03;;;;;;;8.58;7.67;;;;;;;11.67;61.31;99919.28;1756219;81;21437;-63
2022/02/10 19:47:30;;;;;;;9.48;8.58;;;;;;;11.66;61.31;99914.44;1759742;81;21079;-65
2022/02/10 19:49:58;;;;;;;9.20;8.28;;;;;;;11.67;61.31;99917.95;1756859;81;23099;-64
2022/02/10 19:52:25;;;;;;;9.05;8.13;;;;;;;11.67;61.29;99915.29;1762076;81;21073;-63
2022/02/10 19:54:54;;;;;;;10.30;9.28;;;;;;;11.66;61.29;99917.09;1741696;81;21043;-65
2022/02/10 19:57:24;;;;;;;8.63;7.75;;;;;;;11.67;61.28;99912.13;1747958;81;21000;-64
2022/02/10 19:59:50;;;;;;;9.45;8.45;;;;;;;11.67;61.25;99919.28;1747145;81;21622;-65
2022/02/10 20:02:21;;;;;;;10.10;8.88;;;;;;;11.67;61.24;99921.44;1760508;81;21154;-64
2022/02/10 20:04:45;;;;;;;9.65;8.35;;;;;;;11.67;61.23;99916.62;1765076;80;21265;-65
2022/02/10 20:07:12;;;;;;;9.13;8.23;;;;;;;11.67;61.21;99916.11;1772884;80;21011;-64
2022/02/10 20:09:39;;;;;;;9.90;8.78;;;;;;;11.67;61.21;99916.62;1781981;80;21083;-64
2022/02/10 20:12:05;;;;;;;9.93;8.93;;;;;;;11.67;61.18;99907.30;1776518;80;21036;-65
2022/02/10 20:14:32;;;;;;;9.55;8.65;;;;;;;11.67;61.17;99907.30;1766157;80;21202;-63
2022/02/10 20:16:59;;;;;;;9.58;8.58;;;;;;;11.67;61.14;99911.30;1776176;80;21029;-62
2022/02/10 20:19:26;;;;;;;10.30;8.73;;;;;;;11.66;61.14;99912.28;1761232;80;21052;-64
2022/02/10 20:21:52;;;;;;;10.18;8.48;;;;;;;11.65;61.14;99906.62;1763490;80;21016;-63
2022/02/10 20:24:18;;;;;;;10.05;8.60;;;;;;;11.66;61.12;99900.31;1769212;80;21036;-64
2022/02/10 20:26:44;;;;;;;9.73;8.83;;;;;;;11.65;61.09;99903.48;1732788;81;21138;-62
2022/02/10 20:29:11;;;;;;;9.60;8.60;;;;;;;11.63;61.06;99903.30;1774385;80;21038;-63
2022/02/10 20:31:39;;;;;;;9.85;8.85;;;;;;;11.65;61.05;99909.28;1764787;80;21523;-62
2022/02/10 20:34:09;;;;;;;9.85;8.63;;;;;;;11.65;61.04;99906.62;1778228;80;21581;-62
2022/02/10 20:36:37;;;;;;;9.95;8.93;;;;;;;11.63;61.04;99904.15;1768211;80;21122;-61
2022/02/10 20:39:06;;;;;;;10.30;9.30;;;;;;;11.63;61.04;99896.64;1779112;80;21148;-61
2022/02/10 20:41:35;;;;;;;10.18;9.08;;;;;;;11.63;61.02;99899.31;1766420;80;21092;-62
2022/02/10 20:44:01;;;;;;;10.78;9.68;;;;;;;11.63;61.02;99897.98;1762712;80;21049;-62
2022/02/10 20:46:30;;;;;;;10.05;8.88;;;;;;;11.62;60.98;99889.17;1780210;80;21073;-63
2022/02/10 20:48:57;;;;;;;11.60;9.20;;;;;;;11.62;60.97;99898.48;1761258;80;21041;-64
2022/02/10 20:51:23;;;;;;;11.03;9.50;;;;;;;11.63;60.96;99893.98;1770852;80;21116;-62
2022/02/10 20:53:50;;;;;;;10.58;9.50;;;;;;;11.61;60.95;99901.66;1791836;80;21056;-65
2022/02/10 20:56:19;;;;;;;10.65;9.55;;;;;;;11.60;60.95;99902.64;1770044;80;21573;-64
2022/02/10 20:58:54;;;;;;;10.72;9.05;;;;;;;11.61;60.93;99891.52;1756171;80;21085;-63
2022/02/10 21:01:17;;;;;;;10.80;9.70;;;;;;;11.59;60.92;99887.69;1751237;80;21509;-63
2022/02/10 21:03:44;;;;;;;10.45;9.45;;;;;;;11.60;60.91;99888.01;1772689;79;21215;-63
2022/02/10 21:06:25;;;;;;;10.82;9.73;;;;;;;11.59;60.88;99883.70;1794352;79;21025;-65
2022/02/10 21:08:51;;;;;;;11.35;10.25;;;;;;;11.59;60.88;99876.23;1776414;79;21040;-66
2022/02/10 21:11:10;;;;;;;10.63;9.55;;;;;;;11.58;60.86;99878.55;1776984;79;21446;-68
2022/02/10 21:13:38;;;;;;;11.10;10.08;;;;;;;11.57;60.83;99877.72;1782854;79;21077;-66
2022/02/10 21:16:05;;;;;;;10.63;9.53;;;;;;;11.57;60.83;99879.05;1798393;79;21573;-65
2022/02/10 21:18:35;;;;;;;10.60;9.50;;;;;;;11.57;60.84;99884.38;1799021;79;21088;-66
2022/02/10 21:21:06;;;;;;;11.05;9.95;;;;;;;11.56;60.82;99874.72;1781716;79;21624;-67
2022/02/10 21:23:38;;;;;;;10.65;9.55;;;;;;;11.57;60.80;99868.89;1789230;79;21509;-67
2022/02/10 21:26:02;;;;;;;10.28;9.28;;;;;;;11.54;60.81;99866.08;1777397;79;21092;-67
2022/02/10 21:28:32;;;;;;;10.65;9.55;;;;;;;11.54;60.81;99862.09;1786704;79;21135;-67
2022/02/10 21:31:00;;;;;;;10.65;9.55;;;;;;;11.53;60.80;99858.27;1782910;79;21749;-67
2022/02/10 21:33:45;;;;;;;9.78;8.88;;;;;;;11.53;60.81;99849.80;1789738;79;21052;-68
2022/02/10 21:38:55;;;;;;;10.30;9.20;;;;;;;11.52;60.81;99845.98;1791201;79;21073;-66
2022/02/10 21:41:48;;;;;;;9.70;8.80;;;;;;;11.52;60.82;99843.31;1789119;78;21213;-67
2022/02/10 21:59:24;;;;;;;10.93;9.83;;;;;;;11.49;60.86;99847.16;1777448;79;21096;-67
2022/02/10 22:02:45;;;;;;;9.80;8.80;;;;;;;11.49;60.88;99846.31;1791216;79;21552;-67
2022/02/10 22:19:43;;;;;;;9.70;8.70;;;;;;;11.48;60.81;99844.67;1801755;78;20991;-67
2022/02/10 22:22:13;;;;;;;10.15;9.15;;;;;;;11.48;60.84;99841.50;1810536;78;21500;-67
2022/02/10 22:24:38;;;;;;;9.23;8.33;;;;;;;11.48;60.81;99834.84;1783503;78;21047;-67
2022/02/10 22:27:04;;;;;;;9.93;8.93;;;;;;;11.47;60.81;99834.50;1788450;79;20989;-66
2022/02/10 22:29:37;;;;;;;9.93;8.98;;;;;;;11.47;60.81;99830.52;1799821;79;21028;-67
2022/02/10 22:34:37;;;;;;;10.23;9.23;;;;;;;11.48;60.79;99834.84;1777662;79;20981;-66
2022/02/10 22:37:07;;;;;;;9.65;8.65;;;;;;;11.48;60.78;99829.52;1779827;79;21041;-67
2022/02/10 22:39:39;;;;;;;10.13;9.13;;;;;;;11.48;60.77;99836.69;1795128;79;21567;-66
2022/02/10 22:42:03;;;;;;;10.08;9.13;;;;;;;11.47;60.75;99830.52;1800706;79;21033;-66
2022/02/10 22:44:30;;;;;;;10.03;9.03;;;;;;;11.48;60.74;99833.52;1746924;80;21117;-67
2022/02/10 22:46:56;;;;;;;10.45;9.45;;;;;;;11.48;60.74;99830.86;1778572;79;21072;-67
2022/02/10 22:49:22;;;;;;;9.78;8.73;;;;;;;11.47;60.74;99826.52;1776832;79;21234;-66
2022/02/10 22:51:49;;;;;;;10.00;9.00;;;;;;;11.47;60.74;99829.19;1780263;79;21037;-66
2022/02/10 22:54:15;;;;;;;9.73;8.73;;;;;;;11.48;60.72;99830.03;1770240;79;21100;-68
2022/02/10 22:56:44;;;;;;;11.28;9.38;;;;;;;11.48;60.71;99824.20;1779911;79;21125;-66
2022/02/10 22:59:12;;;;;;;10.28;9.28;;;;;;;11.48;60.72;99828.20;1789214;79;21037;-67
2022/02/10 23:01:39;;;;;;;11.50;9.63;;;;;;;11.49;60.70;99829.02;1787522;79;21076;-66
2022/02/10 23:04:07;;;;;;;10.13;9.10;;;;;;;11.48;60.70;99830.86;1797333;79;21093;-67
2022/02/10 23:06:33;;;;;;;10.15;9.10;;;;;;;11.48;60.69;99829.52;1781136;79;21111;-68
2022/02/10 23:09:00;;;;;;;9.90;8.90;;;;;;;11.49;60.66;99827.20;1784706;79;21219;-68
2022/02/10 23:11:30;;;;;;;9.88;8.85;;;;;;;11.49;60.66;99824.55;1796537;79;21084;-66
2022/02/10 23:14:00;;;;;;;10.20;8.95;;;;;;;11.49;60.65;99820.56;1785892;79;21040;-67
2022/02/10 23:16:26;;;;;;;9.80;8.83;;;;;;;11.49;60.65;99833.01;1768848;79;21053;-67
2022/02/10 23:18:53;;;;;;;10.45;9.40;;;;;;;11.49;60.64;99833.86;1795053;79;21040;-66
2022/02/10 23:21:19;;;;;;;11.73;9.35;;;;;;;11.48;60.63;99830.86;1791429;79;21142;-67
2022/02/10 23:23:49;;;;;;;10.88;9.78;;;;;;;11.49;60.62;99827.69;1812938;78;21005;-67
2022/02/10 23:26:22;;;;;;;9.83;8.83;;;;;;;11.49;60.63;99827.69;1770168;80;21046;-67
2022/02/10 23:28:52;;;;;;;10.15;9.13;;;;;;;11.49;60.61;99820.56;1799246;78;20999;-67
2022/02/10 23:31:20;;;;;;;10.45;9.45;;;;;;;11.49;60.61;99825.87;1779974;79;21049;-67
2022/02/10 23:33:54;;;;;;;10.20;9.20;;;;;;;11.49;60.59;99828.54;1816762;78;21135;-67
2022/02/10 23:39:46;;;;;;;9.40;8.38;;;;;;;11.49;60.58;99823.70;1794289;79;21006;-66
2022/02/10 23:44:10;;;;;;;10.38;9.38;;;;;;;11.48;60.58;99811.41;1787001;79;21009;-68
2022/02/10 23:46:33;;;;;;;10.03;9.00;;;;;;;11.47;60.59;99813.22;1803355;78;21777;-67
2022/02/10 23:48:59;;;;;;;10.40;9.20;;;;;;;11.48;60.57;99818.89;1772703;78;21358;-67
2022/02/10 23:51:30;;;;;;;9.90;8.90;;;;;;;11.49;60.56;99818.37;1804365;78;21025;-66
2022/02/10 23:53:54;;;;;;;9.90;8.63;;;;;;;11.48;60.54;99808.75;1800630;79;21447;-67
2022/02/10 23:56:25;;;;;;;9.95;8.80;;;;;;;11.47;60.54;99809.23;1810043;79;22495;-66
2022/02/10 23:59:01;;;;;;;10.23;8.85;;;;;;;11.47;60.53;99805.23;1800099;79;21122;-66
